sensor_id;sensor_type;location;lat;lon;timestamp;P1;durP1;ratioP1;P2;durP2;ratioP2
22780;SDS011;11557;50.884;4.322;2022-08-07T00:01:45;4.75;;;2.00;;
22780;SDS011;11557;50.884;4.322;2022-08-07T00:04:11;3.97;;;1.73;;
22780;SDS011;11557;50.884;4.322;2022-08-07T00:06:37;4.32;;;2.20;;
22780;SDS011;11557;50.884;4.322;2022-08-07T00:09:03;2.17;;;1.50;;
22780;SDS011;11557;50.884;4.322;2022-08-07T00:11:29;5.47;;;1.98;;
22780;SDS011;11557;50.884;4.322;2022-08-07T00:13:55;5.70;;;2.05;;
22780;SDS011;11557;50.884;4.322;2022-08-07T00:16:20;6.07;;;1.85;;
22780;SDS011;11557;50.884;4.322;2022-08-07T00:18:46;4.95;;;1.88;;
22780;SDS011;11557;50.884;4.322;2022-08-07T00:21:12;3.20;;;1.70;;
22780;SDS011;11557;50.884;4.322;2022-08-07T00:23:38;4.72;;;1.80;;
22780;SDS011;11557;50.884;4.322;2022-08-07T00:26:05;4.35;;;1.73;;
22780;SDS011;11557;50.884;4.322;2022-08-07T00:28:32;4.38;;;1.85;;
22780;SDS011;11557;50.884;4.322;2022-08-07T00:30:58;2.33;;;1.80;;
22780;SDS011;11557;50.884;4.322;2022-08-07T00:33:24;3.97;;;2.15;;
22780;SDS011;11557;50.884;4.322;2022-08-07T00:35:53;2.80;;;1.80;;
22780;SDS011;11557;50.884;4.322;2022-08-07T00:38:19;2.40;;;1.70;;
22780;SDS011;11557;50.884;4.322;2022-08-07T00:40:45;5.55;;;1.95;;
22780;SDS011;11557;50.884;4.322;2022-08-07T00:43:11;4.47;;;2.13;;
22780;SDS011;11557;50.884;4.322;2022-08-07T00:45:38;5.47;;;2.25;;
22780;SDS011;11557;50.884;4.322;2022-08-07T00:48:04;3.70;;;2.70;;
22780;SDS011;11557;50.884;4.322;2022-08-07T00:50:30;5.50;;;2.50;;
22780;SDS011;11557;50.884;4.322;2022-08-07T00:52:56;6.35;;;2.05;;
22780;SDS011;11557;50.884;4.322;2022-08-07T00:55:22;5.75;;;2.10;;
22780;SDS011;11557;50.884;4.322;2022-08-07T00:57:48;4.07;;;2.20;;
22780;SDS011;11557;50.884;4.322;2022-08-07T01:00:15;6.15;;;2.50;;
22780;SDS011;11557;50.884;4.322;2022-08-07T01:02:41;5.25;;;2.03;;
22780;SDS011;11557;50.884;4.322;2022-08-07T01:05:07;3.47;;;2.10;;
22780;SDS011;11557;50.884;4.322;2022-08-07T01:07:34;7.80;;;2.38;;
22780;SDS011;11557;50.884;4.322;2022-08-07T01:10:00;7.00;;;2.38;;
22780;SDS011;11557;50.884;4.322;2022-08-07T01:12:25;6.57;;;2.55;;
22780;SDS011;11557;50.884;4.322;2022-08-07T01:14:52;8.32;;;2.85;;
22780;SDS011;11557;50.884;4.322;2022-08-07T01:17:18;7.13;;;2.47;;
22780;SDS011;11557;50.884;4.322;2022-08-07T01:19:44;5.20;;;2.30;;
22780;SDS011;11557;50.884;4.322;2022-08-07T01:22:10;6.50;;;2.50;;
22780;SDS011;11557;50.884;4.322;2022-08-07T01:24:36;5.30;;;2.40;;
22780;SDS011;11557;50.884;4.322;2022-08-07T01:27:03;5.35;;;2.83;;
22780;SDS011;11557;50.884;4.322;2022-08-07T01:29:29;6.05;;;2.80;;
22780;SDS011;11557;50.884;4.322;2022-08-07T01:31:55;4.32;;;2.40;;
22780;SDS011;11557;50.884;4.322;2022-08-07T01:34:21;5.53;;;2.60;;
22780;SDS011;11557;50.884;4.322;2022-08-07T01:36:47;7.70;;;2.95;;
22780;SDS011;11557;50.884;4.322;2022-08-07T01:39:14;6.07;;;2.72;;
22780;SDS011;11557;50.884;4.322;2022-08-07T01:41:40;4.63;;;2.85;;
22780;SDS011;11557;50.884;4.322;2022-08-07T01:44:07;6.07;;;2.70;;
22780;SDS011;11557;50.884;4.322;2022-08-07T01:46:34;6.25;;;2.60;;
22780;SDS011;11557;50.884;4.322;2022-08-07T01:49:00;7.10;;;3.03;;
22780;SDS011;11557;50.884;4.322;2022-08-07T01:51:26;5.93;;;2.70;;
22780;SDS011;11557;50.884;4.322;2022-08-07T01:53:55;6.47;;;2.80;;
22780;SDS011;11557;50.884;4.322;2022-08-07T01:56:26;4.82;;;2.90;;
22780;SDS011;11557;50.884;4.322;2022-08-07T01:58:59;8.18;;;2.85;;
22780;SDS011;11557;50.884;4.322;2022-08-07T02:01:32;4.47;;;2.90;;
22780;SDS011;11557;50.884;4.322;2022-08-07T02:04:17;10.18;;;2.83;;
22780;SDS011;11557;50.884;4.322;2022-08-07T02:06:50;4.15;;;2.60;;
22780;SDS011;11557;50.884;4.322;2022-08-07T02:09:20;4.72;;;2.95;;
22780;SDS011;11557;50.884;4.322;2022-08-07T02:11:48;6.15;;;2.85;;
22780;SDS011;11557;50.884;4.322;2022-08-07T02:14:16;4.80;;;3.13;;
22780;SDS011;11557;50.884;4.322;2022-08-07T02:16:43;5.53;;;2.88;;
22780;SDS011;11557;50.884;4.322;2022-08-07T02:19:12;3.08;;;2.60;;
22780;SDS011;11557;50.884;4.322;2022-08-07T02:21:40;6.43;;;2.88;;
22780;SDS011;11557;50.884;4.322;2022-08-07T02:24:07;5.75;;;2.80;;
22780;SDS011;11557;50.884;4.322;2022-08-07T02:26:34;4.75;;;2.50;;
22780;SDS011;11557;50.884;4.322;2022-08-07T02:29:01;5.68;;;3.17;;
22780;SDS011;11557;50.884;4.322;2022-08-07T02:31:28;4.53;;;2.60;;
22780;SDS011;11557;50.884;4.322;2022-08-07T02:33:56;6.20;;;2.95;;
22780;SDS011;11557;50.884;4.322;2022-08-07T02:36:22;4.40;;;2.67;;
22780;SDS011;11557;50.884;4.322;2022-08-07T02:38:50;5.72;;;2.60;;
22780;SDS011;11557;50.884;4.322;2022-08-07T02:41:18;6.35;;;2.85;;
22780;SDS011;11557;50.884;4.322;2022-08-07T02:43:43;7.97;;;3.42;;
22780;SDS011;11557;50.884;4.322;2022-08-07T02:46:10;6.22;;;3.00;;
22780;SDS011;11557;50.884;4.322;2022-08-07T02:48:37;5.82;;;3.60;;
22780;SDS011;11557;50.884;4.322;2022-08-07T02:51:05;3.72;;;2.78;;
22780;SDS011;11557;50.884;4.322;2022-08-07T02:53:35;4.22;;;2.80;;
22780;SDS011;11557;50.884;4.322;2022-08-07T02:56:03;6.95;;;3.03;;
22780;SDS011;11557;50.884;4.322;2022-08-07T02:58:31;5.85;;;2.85;;
22780;SDS011;11557;50.884;4.322;2022-08-07T03:00:58;7.13;;;3.03;;
22780;SDS011;11557;50.884;4.322;2022-08-07T03:03:25;4.70;;;3.28;;
22780;SDS011;11557;50.884;4.322;2022-08-07T03:05:54;3.90;;;2.83;;
22780;SDS011;11557;50.884;4.322;2022-08-07T03:08:21;6.78;;;3.80;;
22780;SDS011;11557;50.884;4.322;2022-08-07T03:10:54;5.57;;;2.90;;
22780;SDS011;11557;50.884;4.322;2022-08-07T03:13:20;4.95;;;2.88;;
22780;SDS011;11557;50.884;4.322;2022-08-07T03:15:46;3.85;;;2.58;;
22780;SDS011;11557;50.884;4.322;2022-08-07T03:18:13;4.30;;;2.80;;
22780;SDS011;11557;50.884;4.322;2022-08-07T03:20:39;5.55;;;2.78;;
22780;SDS011;11557;50.884;4.322;2022-08-07T03:23:05;3.20;;;2.30;;
22780;SDS011;11557;50.884;4.322;2022-08-07T03:25:33;3.45;;;2.45;;
22780;SDS011;11557;50.884;4.322;2022-08-07T03:28:01;5.13;;;2.70;;
22780;SDS011;11557;50.884;4.322;2022-08-07T03:30:29;4.20;;;2.63;;
22780;SDS011;11557;50.884;4.322;2022-08-07T03:32:55;5.60;;;2.40;;
22780;SDS011;11557;50.884;4.322;2022-08-07T03:35:23;3.28;;;2.50;;
22780;SDS011;11557;50.884;4.322;2022-08-07T03:37:58;4.57;;;2.90;;
22780;SDS011;11557;50.884;4.322;2022-08-07T03:40:26;5.38;;;2.60;;
22780;SDS011;11557;50.884;4.322;2022-08-07T03:42:52;5.97;;;2.60;;
22780;SDS011;11557;50.884;4.322;2022-08-07T03:45:19;4.75;;;2.50;;
22780;SDS011;11557;50.884;4.322;2022-08-07T03:47:46;5.90;;;3.33;;
22780;SDS011;11557;50.884;4.322;2022-08-07T03:50:12;8.70;;;3.97;;
22780;SDS011;11557;50.884;4.322;2022-08-07T03:52:38;6.57;;;3.67;;
22780;SDS011;11557;50.884;4.322;2022-08-07T03:55:06;5.10;;;3.72;;
22780;SDS011;11557;50.884;4.322;2022-08-07T03:57:32;6.25;;;4.20;;
22780;SDS011;11557;50.884;4.322;2022-08-07T03:59:59;5.38;;;3.80;;
22780;SDS011;11557;50.884;4.322;2022-08-07T04:02:25;5.30;;;3.80;;
22780;SDS011;11557;50.884;4.322;2022-08-07T04:04:51;5.70;;;4.13;;
22780;SDS011;11557;50.884;4.322;2022-08-07T04:07:17;6.90;;;4.55;;
22780;SDS011;11557;50.884;4.322;2022-08-07T04:09:46;6.43;;;4.60;;
22780;SDS011;11557;50.884;4.322;2022-08-07T04:12:13;7.00;;;4.72;;
22780;SDS011;11557;50.884;4.322;2022-08-07T04:14:40;7.65;;;5.20;;
22780;SDS011;11557;50.884;4.322;2022-08-07T04:17:06;8.20;;;4.78;;
22780;SDS011;11557;50.884;4.322;2022-08-07T04:19:32;7.53;;;5.25;;
22780;SDS011;11557;50.884;4.322;2022-08-07T04:21:58;8.93;;;5.53;;
22780;SDS011;11557;50.884;4.322;2022-08-07T04:24:24;7.97;;;5.18;;
22780;SDS011;11557;50.884;4.322;2022-08-07T04:26:50;10.02;;;5.85;;
22780;SDS011;11557;50.884;4.322;2022-08-07T04:29:16;8.70;;;5.63;;
22780;SDS011;11557;50.884;4.322;2022-08-07T04:31:42;11.45;;;5.57;;
22780;SDS011;11557;50.884;4.322;2022-08-07T04:34:09;9.35;;;6.05;;
22780;SDS011;11557;50.884;4.322;2022-08-07T04:36:35;9.30;;;5.53;;
22780;SDS011;11557;50.884;4.322;2022-08-07T04:39:02;9.65;;;5.53;;
22780;SDS011;11557;50.884;4.322;2022-08-07T04:41:29;6.43;;;5.07;;
22780;SDS011;11557;50.884;4.322;2022-08-07T04:43:55;11.23;;;5.88;;
22780;SDS011;11557;50.884;4.322;2022-08-07T04:46:22;8.38;;;5.75;;
22780;SDS011;11557;50.884;4.322;2022-08-07T04:49:04;9.55;;;5.30;;
22780;SDS011;11557;50.884;4.322;2022-08-07T04:52:06;7.50;;;5.78;;
22780;SDS011;11557;50.884;4.322;2022-08-07T04:57:26;8.05;;;5.15;;
22780;SDS011;11557;50.884;4.322;2022-08-07T05:00:07;7.55;;;5.32;;
22780;SDS011;11557;50.884;4.322;2022-08-07T05:02:46;8.55;;;5.15;;
22780;SDS011;11557;50.884;4.322;2022-08-07T05:05:44;6.65;;;5.20;;
22780;SDS011;11557;50.884;4.322;2022-08-07T05:08:43;9.57;;;4.82;;
22780;SDS011;11557;50.884;4.322;2022-08-07T05:11:22;5.88;;;4.85;;
22780;SDS011;11557;50.884;4.322;2022-08-07T05:13:54;8.40;;;4.95;;
22780;SDS011;11557;50.884;4.322;2022-08-07T05:16:24;8.02;;;4.72;;
22780;SDS011;11557;50.884;4.322;2022-08-07T05:18:55;5.70;;;4.60;;
22780;SDS011;11557;50.884;4.322;2022-08-07T05:21:26;8.68;;;4.90;;
22780;SDS011;11557;50.884;4.322;2022-08-07T05:23:57;9.48;;;4.93;;
22780;SDS011;11557;50.884;4.322;2022-08-07T05:26:26;7.55;;;4.90;;
22780;SDS011;11557;50.884;4.322;2022-08-07T05:28:55;10.57;;;4.80;;
22780;SDS011;11557;50.884;4.322;2022-08-07T05:31:25;8.40;;;5.53;;
22780;SDS011;11557;50.884;4.322;2022-08-07T05:34:02;7.13;;;5.03;;
22780;SDS011;11557;50.884;4.322;2022-08-07T05:36:31;7.57;;;5.60;;
22780;SDS011;11557;50.884;4.322;2022-08-07T05:38:58;6.95;;;5.18;;
22780;SDS011;11557;50.884;4.322;2022-08-07T05:41:25;6.95;;;5.40;;
22780;SDS011;11557;50.884;4.322;2022-08-07T05:43:53;7.93;;;5.20;;
22780;SDS011;11557;50.884;4.322;2022-08-07T05:46:20;9.18;;;5.07;;
22780;SDS011;11557;50.884;4.322;2022-08-07T05:48:51;8.35;;;5.45;;
22780;SDS011;11557;50.884;4.322;2022-08-07T05:51:17;6.70;;;4.90;;
22780;SDS011;11557;50.884;4.322;2022-08-07T05:53:44;5.78;;;4.60;;
22780;SDS011;11557;50.884;4.322;2022-08-07T05:56:11;8.95;;;5.45;;
22780;SDS011;11557;50.884;4.322;2022-08-07T05:58:38;8.13;;;4.63;;
22780;SDS011;11557;50.884;4.322;2022-08-07T06:01:06;8.90;;;4.95;;
22780;SDS011;11557;50.884;4.322;2022-08-07T06:03:34;7.53;;;5.22;;
22780;SDS011;11557;50.884;4.322;2022-08-07T06:06:02;8.80;;;5.05;;
22780;SDS011;11557;50.884;4.322;2022-08-07T06:08:28;8.30;;;4.53;;
22780;SDS011;11557;50.884;4.322;2022-08-07T06:10:55;9.30;;;4.93;;
22780;SDS011;11557;50.884;4.322;2022-08-07T06:13:20;6.70;;;4.72;;
22780;SDS011;11557;50.884;4.322;2022-08-07T06:15:47;6.78;;;3.97;;
22780;SDS011;11557;50.884;4.322;2022-08-07T06:18:13;8.63;;;4.28;;
22780;SDS011;11557;50.884;4.322;2022-08-07T06:20:42;7.22;;;4.70;;
22780;SDS011;11557;50.884;4.322;2022-08-07T06:23:09;8.75;;;4.32;;
22780;SDS011;11557;50.884;4.322;2022-08-07T06:25:35;6.25;;;4.50;;
22780;SDS011;11557;50.884;4.322;2022-08-07T06:28:04;8.35;;;4.22;;
22780;SDS011;11557;50.884;4.322;2022-08-07T06:30:34;7.85;;;4.15;;
22780;SDS011;11557;50.884;4.322;2022-08-07T06:33:01;5.35;;;4.10;;
22780;SDS011;11557;50.884;4.322;2022-08-07T06:35:27;15.82;;;4.97;;
22780;SDS011;11557;50.884;4.322;2022-08-07T06:37:53;9.13;;;3.90;;
22780;SDS011;11557;50.884;4.322;2022-08-07T06:40:20;14.73;;;5.10;;
22780;SDS011;11557;50.884;4.322;2022-08-07T06:42:46;7.85;;;4.38;;
22780;SDS011;11557;50.884;4.322;2022-08-07T06:45:13;8.15;;;4.00;;
22780;SDS011;11557;50.884;4.322;2022-08-07T06:47:41;6.43;;;4.32;;
22780;SDS011;11557;50.884;4.322;2022-08-07T06:50:08;7.50;;;3.85;;
22780;SDS011;11557;50.884;4.322;2022-08-07T06:52:37;7.53;;;3.83;;
22780;SDS011;11557;50.884;4.322;2022-08-07T06:55:17;6.22;;;3.90;;
22780;SDS011;11557;50.884;4.322;2022-08-07T06:57:47;14.82;;;3.90;;
22780;SDS011;11557;50.884;4.322;2022-08-07T07:00:15;9.07;;;4.13;;
22780;SDS011;11557;50.884;4.322;2022-08-07T07:02:46;9.82;;;3.83;;
22780;SDS011;11557;50.884;4.322;2022-08-07T07:05:12;6.82;;;3.33;;
22780;SDS011;11557;50.884;4.322;2022-08-07T07:07:39;6.10;;;3.70;;
22780;SDS011;11557;50.884;4.322;2022-08-07T07:10:05;5.57;;;3.63;;
22780;SDS011;11557;50.884;4.322;2022-08-07T07:12:36;10.23;;;3.72;;
22780;SDS011;11557;50.884;4.322;2022-08-07T07:17:47;5.47;;;3.58;;
22780;SDS011;11557;50.884;4.322;2022-08-07T07:20:20;4.88;;;3.53;;
22780;SDS011;11557;50.884;4.322;2022-08-07T07:22:51;6.30;;;3.20;;
22780;SDS011;11557;50.884;4.322;2022-08-07T07:25:17;4.20;;;3.03;;
22780;SDS011;11557;50.884;4.322;2022-08-07T07:27:56;6.18;;;3.08;;
22780;SDS011;11557;50.884;4.322;2022-08-07T07:30:30;6.63;;;3.03;;
22780;SDS011;11557;50.884;4.322;2022-08-07T07:32:59;4.78;;;2.50;;
22780;SDS011;11557;50.884;4.322;2022-08-07T07:35:26;3.47;;;2.40;;
22780;SDS011;11557;50.884;4.322;2022-08-07T07:37:54;4.68;;;2.50;;
22780;SDS011;11557;50.884;4.322;2022-08-07T07:40:21;4.05;;;2.10;;
22780;SDS011;11557;50.884;4.322;2022-08-07T07:42:49;4.65;;;2.25;;
22780;SDS011;11557;50.884;4.322;2022-08-07T07:45:18;6.07;;;2.17;;
22780;SDS011;11557;50.884;4.322;2022-08-07T07:47:46;5.35;;;2.25;;
22780;SDS011;11557;50.884;4.322;2022-08-07T07:50:15;5.28;;;2.42;;
22780;SDS011;11557;50.884;4.322;2022-08-07T07:52:43;5.65;;;2.80;;
22780;SDS011;11557;50.884;4.322;2022-08-07T07:55:09;3.20;;;2.40;;
22780;SDS011;11557;50.884;4.322;2022-08-07T07:57:37;11.75;;;2.80;;
22780;SDS011;11557;50.884;4.322;2022-08-07T08:00:04;4.88;;;2.50;;
22780;SDS011;11557;50.884;4.322;2022-08-07T08:02:32;8.18;;;2.88;;
22780;SDS011;11557;50.884;4.322;2022-08-07T08:05:00;6.25;;;2.70;;
22780;SDS011;11557;50.884;4.322;2022-08-07T08:07:29;6.28;;;2.95;;
22780;SDS011;11557;50.884;4.322;2022-08-07T08:09:56;5.35;;;2.60;;
22780;SDS011;11557;50.884;4.322;2022-08-07T08:12:23;5.88;;;2.50;;
22780;SDS011;11557;50.884;4.322;2022-08-07T08:14:49;3.97;;;2.10;;
22780;SDS011;11557;50.884;4.322;2022-08-07T08:17:15;3.42;;;2.03;;
22780;SDS011;11557;50.884;4.322;2022-08-07T08:19:42;5.55;;;2.13;;
22780;SDS011;11557;50.884;4.322;2022-08-07T08:22:09;3.45;;;1.80;;
22780;SDS011;11557;50.884;4.322;2022-08-07T08:24:55;4.18;;;2.13;;
22780;SDS011;11557;50.884;4.322;2022-08-07T08:27:41;6.57;;;3.38;;
22780;SDS011;11557;50.884;4.322;2022-08-07T08:30:09;7.70;;;2.13;;
22780;SDS011;11557;50.884;4.322;2022-08-07T08:32:40;4.45;;;2.05;;
22780;SDS011;11557;50.884;4.322;2022-08-07T08:35:11;7.43;;;2.00;;
22780;SDS011;11557;50.884;4.322;2022-08-07T08:37:40;3.45;;;1.67;;
22780;SDS011;11557;50.884;4.322;2022-08-07T08:40:09;10.77;;;2.35;;
22780;SDS011;11557;50.884;4.322;2022-08-07T08:42:44;62.28;;;4.65;;
22780;SDS011;11557;50.884;4.322;2022-08-07T08:50:59;16.73;;;2.38;;
22780;SDS011;11557;50.884;4.322;2022-08-07T08:53:34;5.03;;;1.70;;
22780;SDS011;11557;50.884;4.322;2022-08-07T08:56:16;3.33;;;1.70;;
22780;SDS011;11557;50.884;4.322;2022-08-07T09:07:13;3.50;;;1.52;;
22780;SDS011;11557;50.884;4.322;2022-08-07T09:12:10;1.38;;;1.23;;
22780;SDS011;11557;50.884;4.322;2022-08-07T09:20:26;4.65;;;1.80;;
22780;SDS011;11557;50.884;4.322;2022-08-07T09:23:17;3.15;;;1.55;;
22780;SDS011;11557;50.884;4.322;2022-08-07T09:28:39;2.42;;;1.27;;
22780;SDS011;11557;50.884;4.322;2022-08-07T09:31:16;2.17;;;1.50;;
22780;SDS011;11557;50.884;4.322;2022-08-07T09:34:17;4.70;;;1.58;;
22780;SDS011;11557;50.884;4.322;2022-08-07T09:37:13;2.72;;;1.20;;
22780;SDS011;11557;50.884;4.322;2022-08-07T09:39:58;2.55;;;1.27;;
22780;SDS011;11557;50.884;4.322;2022-08-07T09:42:36;3.15;;;1.35;;
22780;SDS011;11557;50.884;4.322;2022-08-07T09:45:12;3.28;;;1.60;;
22780;SDS011;11557;50.884;4.322;2022-08-07T09:53:09;2.75;;;2.10;;
22780;SDS011;11557;50.884;4.322;2022-08-07T09:55:51;1.95;;;1.20;;
22780;SDS011;11557;50.884;4.322;2022-08-07T10:01:57;1.98;;;1.30;;
22780;SDS011;11557;50.884;4.322;2022-08-07T10:15:57;2.35;;;1.30;;
22780;SDS011;11557;50.884;4.322;2022-08-07T10:19:00;3.00;;;1.60;;
22780;SDS011;11557;50.884;4.322;2022-08-07T10:27:40;1.90;;;1.27;;
22780;SDS011;11557;50.884;4.322;2022-08-07T10:38:23;3.83;;;1.63;;
22780;SDS011;11557;50.884;4.322;2022-08-07T10:43:53;2.08;;;1.40;;
22780;SDS011;11557;50.884;4.322;2022-08-07T10:46:33;2.60;;;1.20;;
22780;SDS011;11557;50.884;4.322;2022-08-07T10:49:07;1.77;;;1.30;;
22780;SDS011;11557;50.884;4.322;2022-08-07T10:54:10;2.17;;;1.63;;
22780;SDS011;11557;50.884;4.322;2022-08-07T10:57:17;7.50;;;1.60;;
22780;SDS011;11557;50.884;4.322;2022-08-07T11:00:09;3.67;;;1.90;;
22780;SDS011;11557;50.884;4.322;2022-08-07T11:08:59;1.92;;;1.50;;
22780;SDS011;11557;50.884;4.322;2022-08-07T11:11:34;1.17;;;1.05;;
22780;SDS011;11557;50.884;4.322;2022-08-07T11:14:12;3.67;;;1.40;;
22780;SDS011;11557;50.884;4.322;2022-08-07T11:16:47;1.50;;;1.10;;
22780;SDS011;11557;50.884;4.322;2022-08-07T11:22:30;3.30;;;1.40;;
22780;SDS011;11557;50.884;4.322;2022-08-07T11:26:00;2.65;;;1.20;;
22780;SDS011;11557;50.884;4.322;2022-08-07T11:33:53;1.40;;;1.27;;
22780;SDS011;11557;50.884;4.322;2022-08-07T11:54:11;2.72;;;1.30;;
22780;SDS011;11557;50.884;4.322;2022-08-07T12:08:10;2.75;;;1.17;;
22780;SDS011;11557;50.884;4.322;2022-08-07T12:13:42;3.78;;;1.27;;
22780;SDS011;11557;50.884;4.322;2022-08-07T12:16:26;2.90;;;1.15;;
22780;SDS011;11557;50.884;4.322;2022-08-07T12:19:15;2.30;;;1.02;;
22780;SDS011;11557;50.884;4.322;2022-08-07T12:25:22;2.88;;;1.27;;
22780;SDS011;11557;50.884;4.322;2022-08-07T12:31:03;2.42;;;1.20;;
22780;SDS011;11557;50.884;4.322;2022-08-07T12:33:35;7.38;;;1.02;;
22780;SDS011;11557;50.884;4.322;2022-08-07T12:36:02;3.30;;;1.15;;
22780;SDS011;11557;50.884;4.322;2022-08-07T12:38:29;3.10;;;1.25;;
22780;SDS011;11557;50.884;4.322;2022-08-07T12:40:58;2.83;;;1.30;;
22780;SDS011;11557;50.884;4.322;2022-08-07T12:43:30;2.72;;;1.65;;
22780;SDS011;11557;50.884;4.322;2022-08-07T12:49:07;2.90;;;1.38;;
22780;SDS011;11557;50.884;4.322;2022-08-07T12:52:50;1.98;;;1.20;;
22780;SDS011;11557;50.884;4.322;2022-08-07T12:55:07;3.13;;;1.40;;
22780;SDS011;11557;50.884;4.322;2022-08-07T12:57:42;5.78;;;1.40;;
22780;SDS011;11557;50.884;4.322;2022-08-07T13:00:10;3.00;;;1.25;;
22780;SDS011;11557;50.884;4.322;2022-08-07T13:05:41;3.50;;;1.08;;
22780;SDS011;11557;50.884;4.322;2022-08-07T13:14:28;2.03;;;1.25;;
22780;SDS011;11557;50.884;4.322;2022-08-07T13:17:19;2.42;;;1.30;;
22780;SDS011;11557;50.884;4.322;2022-08-07T13:19:51;2.40;;;1.38;;
22780;SDS011;11557;50.884;4.322;2022-08-07T13:25:35;4.22;;;1.70;;
22780;SDS011;11557;50.884;4.322;2022-08-07T13:28:16;2.83;;;1.70;;
22780;SDS011;11557;50.884;4.322;2022-08-07T13:30:49;3.35;;;1.60;;
22780;SDS011;11557;50.884;4.322;2022-08-07T13:36:21;1.70;;;1.45;;
22780;SDS011;11557;50.884;4.322;2022-08-07T13:41:38;3.15;;;1.45;;
22780;SDS011;11557;50.884;4.322;2022-08-07T13:44:07;1.77;;;1.15;;
22780;SDS011;11557;50.884;4.322;2022-08-07T13:46:44;1.95;;;1.30;;
22780;SDS011;11557;50.884;4.322;2022-08-07T13:49:12;1.48;;;1.02;;
22780;SDS011;11557;50.884;4.322;2022-08-07T13:51:42;3.05;;;1.20;;
22780;SDS011;11557;50.884;4.322;2022-08-07T13:54:11;2.63;;;1.30;;
22780;SDS011;11557;50.884;4.322;2022-08-07T13:56:40;2.90;;;1.23;;
22780;SDS011;11557;50.884;4.322;2022-08-07T13:59:42;3.92;;;1.80;;
22780;SDS011;11557;50.884;4.322;2022-08-07T14:02:04;3.38;;;1.60;;
22780;SDS011;11557;50.884;4.322;2022-08-07T14:04:52;3.25;;;1.40;;
22780;SDS011;11557;50.884;4.322;2022-08-07T14:07:21;1.70;;;1.15;;
22780;SDS011;11557;50.884;4.322;2022-08-07T14:10:07;2.63;;;1.20;;
22780;SDS011;11557;50.884;4.322;2022-08-07T14:15:39;3.78;;;1.30;;
22780;SDS011;11557;50.884;4.322;2022-08-07T14:18:10;3.42;;;1.20;;
22780;SDS011;11557;50.884;4.322;2022-08-07T14:20:42;1.55;;;1.25;;
22780;SDS011;11557;50.884;4.322;2022-08-07T14:23:13;5.45;;;2.03;;
22780;SDS011;11557;50.884;4.322;2022-08-07T14:25:54;2.35;;;1.60;;
22780;SDS011;11557;50.884;4.322;2022-08-07T14:28:24;5.07;;;1.98;;
22780;SDS011;11557;50.884;4.322;2022-08-07T14:30:52;2.67;;;1.63;;
22780;SDS011;11557;50.884;4.322;2022-08-07T14:33:19;4.20;;;1.73;;
22780;SDS011;11557;50.884;4.322;2022-08-07T14:35:46;2.38;;;1.75;;
22780;SDS011;11557;50.884;4.322;2022-08-07T14:38:13;2.50;;;1.58;;
22780;SDS011;11557;50.884;4.322;2022-08-07T14:40:45;4.03;;;2.30;;
22780;SDS011;11557;50.884;4.322;2022-08-07T14:43:17;1.98;;;1.48;;
22780;SDS011;11557;50.884;4.322;2022-08-07T14:45:48;3.17;;;1.60;;
22780;SDS011;11557;50.884;4.322;2022-08-07T14:48:19;3.25;;;1.55;;
22780;SDS011;11557;50.884;4.322;2022-08-07T14:50:50;1.50;;;1.35;;
22780;SDS011;11557;50.884;4.322;2022-08-07T14:53:21;5.22;;;1.70;;
22780;SDS011;11557;50.884;4.322;2022-08-07T14:55:50;2.33;;;1.77;;
22780;SDS011;11557;50.884;4.322;2022-08-07T14:58:20;5.53;;;1.92;;
22780;SDS011;11557;50.884;4.322;2022-08-07T15:00:49;1.85;;;1.55;;
22780;SDS011;11557;50.884;4.322;2022-08-07T15:03:20;2.72;;;1.50;;
22780;SDS011;11557;50.884;4.322;2022-08-07T15:05:48;3.63;;;1.85;;
22780;SDS011;11557;50.884;4.322;2022-08-07T15:08:20;4.45;;;1.90;;
22780;SDS011;11557;50.884;4.322;2022-08-07T15:10:56;1.98;;;1.48;;
22780;SDS011;11557;50.884;4.322;2022-08-07T15:16:02;1.88;;;1.40;;
22780;SDS011;11557;50.884;4.322;2022-08-07T15:18:34;2.40;;;1.40;;
22780;SDS011;11557;50.884;4.322;2022-08-07T15:21:18;4.05;;;1.85;;
22780;SDS011;11557;50.884;4.322;2022-08-07T15:23:48;2.65;;;1.30;;
22780;SDS011;11557;50.884;4.322;2022-08-07T15:26:20;3.35;;;1.50;;
22780;SDS011;11557;50.884;4.322;2022-08-07T15:28:55;2.33;;;1.40;;
22780;SDS011;11557;50.884;4.322;2022-08-07T15:31:22;2.35;;;1.65;;
22780;SDS011;11557;50.884;4.322;2022-08-07T15:33:54;3.30;;;1.67;;
22780;SDS011;11557;50.884;4.322;2022-08-07T15:36:25;4.82;;;1.83;;
22780;SDS011;11557;50.884;4.322;2022-08-07T15:38:52;2.08;;;1.55;;
22780;SDS011;11557;50.884;4.322;2022-08-07T15:41:27;4.70;;;1.77;;
22780;SDS011;11557;50.884;4.322;2022-08-07T15:43:58;3.63;;;1.42;;
22780;SDS011;11557;50.884;4.322;2022-08-07T15:46:31;4.35;;;1.65;;
22780;SDS011;11557;50.884;4.322;2022-08-07T15:48:59;2.08;;;1.63;;
22780;SDS011;11557;50.884;4.322;2022-08-07T15:51:28;4.45;;;1.70;;
22780;SDS011;11557;50.884;4.322;2022-08-07T15:53:57;3.60;;;2.10;;
22780;SDS011;11557;50.884;4.322;2022-08-07T15:56:34;1.38;;;1.20;;
22780;SDS011;11557;50.884;4.322;2022-08-07T15:59:06;3.13;;;1.60;;
22780;SDS011;11557;50.884;4.322;2022-08-07T16:01:39;2.65;;;1.55;;
22780;SDS011;11557;50.884;4.322;2022-08-07T16:04:09;4.60;;;1.67;;
22780;SDS011;11557;50.884;4.322;2022-08-07T16:14:58;2.72;;;1.50;;
22780;SDS011;11557;50.884;4.322;2022-08-07T16:20:53;4.00;;;1.75;;
22780;SDS011;11557;50.884;4.322;2022-08-07T16:31:40;7.40;;;1.83;;
22780;SDS011;11557;50.884;4.322;2022-08-07T16:37:21;4.70;;;3.13;;
22780;SDS011;11557;50.884;4.322;2022-08-07T16:43:17;4.40;;;1.65;;
22780;SDS011;11557;50.884;4.322;2022-08-07T16:57:52;3.58;;;1.92;;
22780;SDS011;11557;50.884;4.322;2022-08-07T17:00:43;2.65;;;1.63;;
22780;SDS011;11557;50.884;4.322;2022-08-07T17:12:11;5.03;;;2.33;;
22780;SDS011;11557;50.884;4.322;2022-08-07T17:17:16;4.93;;;1.90;;
22780;SDS011;11557;50.884;4.322;2022-08-07T17:20:11;5.80;;;2.30;;
22780;SDS011;11557;50.884;4.322;2022-08-07T17:25:49;5.00;;;2.47;;
22780;SDS011;11557;50.884;4.322;2022-08-07T17:28:21;4.95;;;2.30;;
22780;SDS011;11557;50.884;4.322;2022-08-07T17:33:58;7.72;;;2.45;;
22780;SDS011;11557;50.884;4.322;2022-08-07T17:36:39;3.88;;;2.00;;
22780;SDS011;11557;50.884;4.322;2022-08-07T17:39:11;7.93;;;2.00;;
22780;SDS011;11557;50.884;4.322;2022-08-07T17:42:02;6.82;;;2.30;;
22780;SDS011;11557;50.884;4.322;2022-08-07T17:50:00;5.07;;;2.08;;
22780;SDS011;11557;50.884;4.322;2022-08-07T17:52:39;6.32;;;2.65;;
22780;SDS011;11557;50.884;4.322;2022-08-07T17:55:15;3.40;;;1.90;;
22780;SDS011;11557;50.884;4.322;2022-08-07T17:57:54;2.70;;;1.98;;
22780;SDS011;11557;50.884;4.322;2022-08-07T18:00:27;5.00;;;2.60;;
22780;SDS011;11557;50.884;4.322;2022-08-07T18:03:00;5.50;;;2.45;;
22780;SDS011;11557;50.884;4.322;2022-08-07T18:05:39;5.90;;;2.50;;
22780;SDS011;11557;50.884;4.322;2022-08-07T18:08:13;5.38;;;2.72;;
22780;SDS011;11557;50.884;4.322;2022-08-07T18:10:51;4.90;;;2.03;;
22780;SDS011;11557;50.884;4.322;2022-08-07T18:19:06;7.80;;;1.85;;
22780;SDS011;11557;50.884;4.322;2022-08-07T18:24:30;4.70;;;2.55;;
22780;SDS011;11557;50.884;4.322;2022-08-07T18:27:11;4.15;;;2.22;;
22780;SDS011;11557;50.884;4.322;2022-08-07T18:30:06;4.38;;;2.75;;
22780;SDS011;11557;50.884;4.322;2022-08-07T18:38:38;5.40;;;2.40;;
22780;SDS011;11557;50.884;4.322;2022-08-07T18:43:54;2.88;;;2.25;;
22780;SDS011;11557;50.884;4.322;2022-08-07T18:49:09;3.97;;;2.25;;
22780;SDS011;11557;50.884;4.322;2022-08-07T18:51:46;5.05;;;2.22;;
22780;SDS011;11557;50.884;4.322;2022-08-07T18:54:24;5.75;;;2.72;;
22780;SDS011;11557;50.884;4.322;2022-08-07T19:05:21;5.63;;;2.60;;
22780;SDS011;11557;50.884;4.322;2022-08-07T19:10:30;8.70;;;2.40;;
22780;SDS011;11557;50.884;4.322;2022-08-07T19:24:17;5.88;;;2.50;;
22780;SDS011;11557;50.884;4.322;2022-08-07T19:26:48;6.82;;;2.60;;
22780;SDS011;11557;50.884;4.322;2022-08-07T19:29:17;5.80;;;2.63;;